createdAt,value
2018-08-25T00:00:03.309Z,25.24
2018-08-25T00:01:03.335Z,25.24
2018-08-25T00:02:03.382Z,25.19
2018-08-25T00:03:03.389Z,25.18
2018-08-25T00:04:03.415Z,25.19
2018-08-25T00:05:03.441Z,25.21
2018-08-25T00:06:03.467Z,25.25
2018-08-25T00:07:03.512Z,25.24
2018-08-25T00:08:03.519Z,25.14
2018-08-25T00:09:03.549Z,25.21
2018-08-25T00:10:03.572Z,25.15
2018-08-25T00:11:03.611Z,25.21
2018-08-25T00:12:03.624Z,25.12
2018-08-25T00:13:03.651Z,25.21
2018-08-25T00:14:03.678Z,25.24
2018-08-25T00:15:03.704Z,25.22
2018-08-25T00:16:03.729Z,25.18
2018-08-25T00:17:03.756Z,25.18
2018-08-25T00:18:03.783Z,25.11
2018-08-25T00:19:03.809Z,25.24
2018-08-25T00:20:03.835Z,25.19
2018-08-25T00:21:03.861Z,25.21
2018-08-25T00:22:03.892Z,25.16
2018-08-25T00:23:03.915Z,25.24
2018-08-25T00:24:03.940Z,25.18
2018-08-25T00:25:03.967Z,25.19
2018-08-25T00:26:03.993Z,25.22
2018-08-25T00:27:04.020Z,25.15
2018-08-25T00:28:04.045Z,25.12
2018-08-25T00:29:04.084Z,25.19
2018-08-25T00:30:04.099Z,25.19
2018-08-25T00:31:04.132Z,25.14
2018-08-25T00:32:04.151Z,25.11
2018-08-25T00:33:04.177Z,25.22
2018-08-25T00:34:04.205Z,25.14
2018-08-25T00:35:04.230Z,25.22
2018-08-25T00:36:04.257Z,25.19
2018-08-25T00:37:04.283Z,25.18
2018-08-25T00:38:04.309Z,25.18
2018-08-25T00:39:04.336Z,25.24
2018-08-25T00:40:04.362Z,25.22
2018-08-25T00:41:04.388Z,25.21
2018-08-25T00:42:04.417Z,25.11
2018-08-25T00:43:04.441Z,25.18
2018-08-25T00:44:04.467Z,25.24
2018-08-25T00:45:04.494Z,25.19
2018-08-25T00:46:04.521Z,25.12
2018-08-25T00:47:04.547Z,25.18
2018-08-25T00:48:04.576Z,25.24
2018-08-25T00:49:04.604Z,25.21
2018-08-25T00:50:04.635Z,25.24
2018-08-25T00:51:04.652Z,25.19
2018-08-25T00:52:04.678Z,25.22
2018-08-25T00:53:04.707Z,25.21
2018-08-25T00:54:04.731Z,25.18
2018-08-25T00:55:04.757Z,25.12
2018-08-25T00:56:04.783Z,25.14
2018-08-25T00:57:04.809Z,25.11
2018-08-25T00:58:04.836Z,25.21
2018-08-25T00:59:04.862Z,25.12
2018-08-25T01:00:04.888Z,25.15
2018-08-25T01:01:04.915Z,25.18
2018-08-25T01:02:04.946Z,25.16
2018-08-25T01:03:04.970Z,25.19
2018-08-25T01:04:04.994Z,25.22
2018-08-25T01:05:05.020Z,25.15
2018-08-25T01:06:05.047Z,25.18
2018-08-25T01:07:05.078Z,25.21
2018-08-25T01:08:05.098Z,25.15
2018-08-25T01:09:05.125Z,25.18
2018-08-25T01:10:05.151Z,25.16
2018-08-25T01:11:05.178Z,25.21
2018-08-25T01:12:05.217Z,25.24
2018-08-25T01:13:05.229Z,25.25
2018-08-25T01:14:05.256Z,25.21
2018-08-25T01:15:05.284Z,25.16
2018-08-25T01:16:05.310Z,25.18
2018-08-25T01:17:05.335Z,25.24
2018-08-25T01:18:05.362Z,25.15
2018-08-25T01:19:05.387Z,25.24
2018-08-25T01:20:05.414Z,25.24
2018-08-25T01:21:05.442Z,25.18
2018-08-25T01:22:05.468Z,25.24
2018-08-25T01:23:05.494Z,25.19
2018-08-25T01:24:05.520Z,25.24
2018-08-25T01:25:05.546Z,25.22
2018-08-25T01:26:05.574Z,25.24
2018-08-25T01:27:05.674Z,25.15
2018-08-25T01:28:05.629Z,25.16
2018-08-25T01:29:05.651Z,25.21
2018-08-25T01:30:05.678Z,25.16
2018-08-25T01:31:05.707Z,25.09
2018-08-25T01:32:05.730Z,25.18
2018-08-25T01:33:05.758Z,25.22
2018-08-25T01:34:05.783Z,25.24
2018-08-25T01:35:05.824Z,25.25
2018-08-25T01:36:05.835Z,25.22
2018-08-25T01:37:05.863Z,25.24
2018-08-25T01:38:05.888Z,25.21
2018-08-25T01:39:05.916Z,25.26
2018-08-25T01:40:05.940Z,25.21
2018-08-25T01:41:06.003Z,25.11
2018-08-25T01:42:05.993Z,25.14
2018-08-25T01:43:06.019Z,25.16
2018-08-25T01:44:06.050Z,25.22
2018-08-25T01:45:06.104Z,25.16
2018-08-25T01:46:06.097Z,25.16
2018-08-25T01:47:06.129Z,25.15
2018-08-25T01:48:06.151Z,25.15
2018-08-25T01:49:06.177Z,25.21
2018-08-25T01:50:06.203Z,25.18
2018-08-25T01:51:06.257Z,25.18
2018-08-25T01:52:06.255Z,25.16
2018-08-25T01:53:06.283Z,25.11
2018-08-25T01:54:06.310Z,25.16
2018-08-25T01:55:06.335Z,25.09
2018-08-25T01:56:06.360Z,25.18
2018-08-25T01:57:06.389Z,25.19
2018-08-25T01:58:06.414Z,25.19
2018-08-25T01:59:06.441Z,25.16
2018-08-25T02:00:06.469Z,25.14
2018-08-25T02:01:06.492Z,25.14
2018-08-25T02:02:06.519Z,25.14
2018-08-25T02:03:06.548Z,25.14
2018-08-25T02:04:06.571Z,25.15
2018-08-25T02:05:06.598Z,25.15
2018-08-25T02:06:06.625Z,25.21
2018-08-25T02:07:06.695Z,25.12
2018-08-25T02:08:06.676Z,25.18
2018-08-25T02:09:06.703Z,25.11
2018-08-25T02:10:06.729Z,25.18
2018-08-25T02:11:06.756Z,25.16
2018-08-25T02:12:06.781Z,25.15
2018-08-25T02:13:06.811Z,25.09
2018-08-25T02:14:06.834Z,25.19
2018-08-25T02:15:06.867Z,25.14
2018-08-25T02:16:06.886Z,25.18
2018-08-25T02:17:06.913Z,25.18
2018-08-25T02:18:06.939Z,25.18
2018-08-25T02:19:07.002Z,25.22
2018-08-25T02:20:07.005Z,25.18
2018-08-25T02:21:07.018Z,25.14
2018-08-25T02:22:07.045Z,25.18
2018-08-25T02:23:07.070Z,25.16
2018-08-25T02:24:07.097Z,25.18
2018-08-25T02:25:07.123Z,25.21
2018-08-25T02:26:07.150Z,25.16
2018-08-25T02:27:07.177Z,25.12
2018-08-25T02:28:07.217Z,25.21
2018-08-25T02:29:07.229Z,25.18
2018-08-25T02:30:07.255Z,25.21
2018-08-25T02:31:07.282Z,25.15
2018-08-25T02:32:07.307Z,25.19
2018-08-25T02:33:07.333Z,25.15
2018-08-25T02:34:07.360Z,25.24
2018-08-25T02:35:07.387Z,25.19
2018-08-25T02:36:07.413Z,25.14
2018-08-25T02:37:07.439Z,25.12
2018-08-25T02:38:07.466Z,25.16
2018-08-25T02:39:07.493Z,25.18
2018-08-25T02:40:07.519Z,25.14
2018-08-25T02:41:07.544Z,25.14
2018-08-25T02:42:07.586Z,25.19
2018-08-25T02:43:07.598Z,25.11
2018-08-25T02:44:07.624Z,25.11
2018-08-25T02:45:07.650Z,25.16
2018-08-25T02:46:07.679Z,25.15
2018-08-25T02:47:07.702Z,25.16
2018-08-25T02:48:07.728Z,25.19
2018-08-25T02:49:07.755Z,25.14
2018-08-25T02:50:07.784Z,25.09
2018-08-25T02:51:07.808Z,25.09
2018-08-25T02:52:07.836Z,25.09
2018-08-25T02:53:07.877Z,25.16
2018-08-25T02:54:07.888Z,25.11
2018-08-25T02:55:07.933Z,25.15
2018-08-25T02:56:07.941Z,25.12
2018-08-25T02:57:07.966Z,25.24
2018-08-25T02:58:08.003Z,25.12
2018-08-25T02:59:08.019Z,25.12
2018-08-25T03:00:08.045Z,25.09
2018-08-25T03:01:08.071Z,25.11
2018-08-25T03:02:08.097Z,25.12
2018-08-25T03:03:08.125Z,25.09
2018-08-25T03:04:08.155Z,25.15
2018-08-25T03:05:08.176Z,25.11
2018-08-25T03:06:08.202Z,25.12
2018-08-25T03:07:08.229Z,25.12
2018-08-25T03:08:08.255Z,25.16
2018-08-25T03:09:08.281Z,25.11
2018-08-25T03:10:08.308Z,25.14
2018-08-25T03:11:08.335Z,25.09
2018-08-25T03:12:08.360Z,25.12
2018-08-25T03:13:08.389Z,25.14
2018-08-25T03:14:08.417Z,25.11
2018-08-25T03:15:08.442Z,25.11
2018-08-25T03:16:08.465Z,25.14
2018-08-25T03:17:08.492Z,25.21
2018-08-25T03:18:08.518Z,25.21
2018-08-25T03:19:08.560Z,25.14
2018-08-25T03:20:08.578Z,25.19
2018-08-25T03:21:08.597Z,25.14
2018-08-25T03:22:08.623Z,25.14
2018-08-25T03:23:08.654Z,25.21
2018-08-25T03:24:08.711Z,25.21
2018-08-25T03:25:08.703Z,25.11
2018-08-25T03:26:08.729Z,25.12
2018-08-25T03:27:08.756Z,25.15
2018-08-25T03:28:08.780Z,25.11
2018-08-25T03:29:08.807Z,25.11
2018-08-25T03:30:08.834Z,25.14
2018-08-25T03:31:08.873Z,25.11
2018-08-25T03:32:08.886Z,25.11
2018-08-25T03:33:08.912Z,25.12
2018-08-25T03:34:08.941Z,25.21
2018-08-25T03:35:08.965Z,25.12
2018-08-25T03:36:08.991Z,25.14
2018-08-25T03:37:09.017Z,25.11
2018-08-25T03:38:09.046Z,25.11
2018-08-25T03:39:09.073Z,25.09
2018-08-25T03:40:09.096Z,25.18
2018-08-25T03:41:09.123Z,25.12
2018-08-25T03:42:09.156Z,25.16
2018-08-25T03:43:09.176Z,25.18
2018-08-25T03:44:09.204Z,25.14
2018-08-25T03:45:09.228Z,25.09
2018-08-25T03:46:09.254Z,25.12
2018-08-25T03:47:09.281Z,25.09
2018-08-25T03:48:09.310Z,25.14
2018-08-25T03:49:09.334Z,25.14
2018-08-25T03:50:09.360Z,25.18
2018-08-25T03:51:09.386Z,25.11
2018-08-25T03:52:09.430Z,25.21
2018-08-25T03:53:09.440Z,25.24
2018-08-25T03:54:09.465Z,25.11
2018-08-25T03:55:09.492Z,25.09
2018-08-25T03:56:09.553Z,25.14
2018-08-25T03:57:09.543Z,25.14
2018-08-25T03:58:09.569Z,25.09
2018-08-25T03:59:09.624Z,25.18
2018-08-25T04:00:09.622Z,25.11
2018-08-25T04:01:09.664Z,25.07
2018-08-25T04:02:09.675Z,25.18
2018-08-25T04:03:09.701Z,25.11
2018-08-25T04:04:09.731Z,25.12
2018-08-25T04:05:09.754Z,25.12
2018-08-25T04:06:09.800Z,25.18
2018-08-25T04:07:09.806Z,25.09
2018-08-25T04:08:09.833Z,25.18
2018-08-25T04:09:09.877Z,25.07
2018-08-25T04:10:09.886Z,25.11
2018-08-25T04:11:09.912Z,25.11
2018-08-25T04:12:09.937Z,25.14
2018-08-25T04:13:09.964Z,25.14
2018-08-25T04:14:09.991Z,25.18
2018-08-25T04:15:10.021Z,25.11
2018-08-25T04:16:10.043Z,25.15
2018-08-25T04:17:10.069Z,25.19
2018-08-25T04:18:10.096Z,25.12
2018-08-25T04:19:10.122Z,25.09
2018-08-25T04:20:10.166Z,25.21
2018-08-25T04:21:10.175Z,25.15
2018-08-25T04:22:10.254Z,25.16
2018-08-25T04:23:10.228Z,25.21
2018-08-25T04:24:10.255Z,25.21
2018-08-25T04:25:10.279Z,25.16
2018-08-25T04:26:10.308Z,25.18
2018-08-25T04:27:10.333Z,25.16
2018-08-25T04:28:10.359Z,25.15
2018-08-25T04:29:10.384Z,25.15
2018-08-25T04:30:10.411Z,25.15
2018-08-25T04:31:10.438Z,25.09
2018-08-25T04:32:10.463Z,25.18
2018-08-25T04:33:10.489Z,25.18
2018-08-25T04:34:10.517Z,25.21
2018-08-25T04:35:10.543Z,25.19
2018-08-25T04:36:10.569Z,25.18
2018-08-25T04:37:10.595Z,25.18
2018-08-25T04:38:10.621Z,25.14
2018-08-25T04:39:10.648Z,25.19
2018-08-25T04:40:10.674Z,25.21
2018-08-25T04:41:10.714Z,25.24
2018-08-25T04:42:10.765Z,25.24
2018-08-25T04:43:10.754Z,25.19
2018-08-25T04:44:10.779Z,25.14
2018-08-25T04:45:10.805Z,25.18
2018-08-25T04:46:10.833Z,25.21
2018-08-25T04:47:10.887Z,25.18
2018-08-25T04:48:10.884Z,25.16
2018-08-25T04:49:10.911Z,25.18
2018-08-25T04:50:10.937Z,25.19
2018-08-25T04:51:10.964Z,25.16
2018-08-25T04:52:10.992Z,25.18
2018-08-25T04:53:11.017Z,25.24
2018-08-25T04:54:11.044Z,25.16
2018-08-25T04:55:11.069Z,25.18
2018-08-25T04:56:11.095Z,25.22
2018-08-25T04:57:11.159Z,25.24
2018-08-25T04:58:11.148Z,25.22
2018-08-25T04:59:11.175Z,25.19
2018-08-25T05:00:11.201Z,25.21
2018-08-25T05:01:11.228Z,25.21
2018-08-25T05:02:11.270Z,25.19
2018-08-25T05:03:11.286Z,25.18
2018-08-25T05:04:11.305Z,25.18
2018-08-25T05:05:11.333Z,25.19
2018-08-25T05:06:11.358Z,25.21
2018-08-25T05:07:11.385Z,25.19
2018-08-25T05:08:11.411Z,25.16
2018-08-25T05:09:11.437Z,25.19
2018-08-25T05:10:11.463Z,25.22
2018-08-25T05:11:11.490Z,25.25
2018-08-25T05:12:11.520Z,25.14
2018-08-25T05:13:11.542Z,25.21
2018-08-25T05:14:11.569Z,25.15
2018-08-25T05:15:11.594Z,25.21
2018-08-25T05:16:11.621Z,25.25
2018-08-25T05:17:11.649Z,25.24
2018-08-25T05:18:11.678Z,25.22
2018-08-25T05:19:11.701Z,25.15
2018-08-25T05:20:11.726Z,25.21
2018-08-25T05:21:11.753Z,25.14
2018-08-25T05:22:11.780Z,25.18
2018-08-25T05:23:11.807Z,25.24
2018-08-25T05:24:11.831Z,25.22
2018-08-25T05:25:11.861Z,25.16
2018-08-25T05:26:11.885Z,25.21
2018-08-25T05:27:11.912Z,25.14
2018-08-25T05:28:11.937Z,25.21
2018-08-25T05:29:11.963Z,25.19
2018-08-25T05:30:11.991Z,25.25
2018-08-25T05:31:12.019Z,25.30
2018-08-25T05:32:12.068Z,25.21
2018-08-25T05:33:12.068Z,25.25
2018-08-25T05:34:12.095Z,25.31
2018-08-25T05:35:12.122Z,25.34
2018-08-25T05:36:12.148Z,25.24
2018-08-25T05:37:12.173Z,25.34
2018-08-25T05:38:12.218Z,25.25
2018-08-25T05:39:12.227Z,25.22
2018-08-25T05:40:12.253Z,25.22
2018-08-25T05:41:12.281Z,25.39
2018-08-25T05:42:12.306Z,25.34
2018-08-25T05:43:12.333Z,25.30
2018-08-25T05:44:12.423Z,25.34
2018-08-25T05:45:12.385Z,25.33
2018-08-25T05:46:12.411Z,25.34
2018-08-25T05:47:12.437Z,25.33
2018-08-25T05:48:12.464Z,25.41
2018-08-25T05:49:12.491Z,25.29
2018-08-25T05:50:12.553Z,25.40
2018-08-25T05:51:12.546Z,25.37
2018-08-25T05:52:12.568Z,25.31
2018-08-25T05:53:12.595Z,25.37
2018-08-25T05:54:12.627Z,25.26
2018-08-25T05:55:12.649Z,25.34
2018-08-25T05:56:12.675Z,25.29
2018-08-25T05:57:12.703Z,25.49
2018-08-25T05:58:12.728Z,25.44
2018-08-25T05:59:12.753Z,25.39
2018-08-25T06:00:12.780Z,25.41
2018-08-25T06:01:12.807Z,25.41
2018-08-25T06:02:12.833Z,25.44
2018-08-25T06:03:12.860Z,25.40
2018-08-25T06:04:12.887Z,25.43
2018-08-25T06:05:12.911Z,25.37
2018-08-25T06:06:12.938Z,25.40
2018-08-25T06:07:12.965Z,25.37
2018-08-25T06:08:12.991Z,25.37
2018-08-25T06:09:13.017Z,25.46
2018-08-25T06:10:13.048Z,25.43
2018-08-25T06:11:13.072Z,25.43
2018-08-25T06:12:13.096Z,25.43
2018-08-25T06:13:13.122Z,25.49
2018-08-25T06:14:13.149Z,25.52
2018-08-25T06:15:13.176Z,25.41
2018-08-25T06:16:13.201Z,25.41
2018-08-25T06:17:13.229Z,25.40
2018-08-25T06:18:13.254Z,25.43
2018-08-25T06:19:13.304Z,25.49
2018-08-25T06:20:13.332Z,25.46
2018-08-25T06:21:13.336Z,25.44
2018-08-25T06:22:13.360Z,25.48
2018-08-25T06:23:13.387Z,25.43
2018-08-25T06:24:13.412Z,25.44
2018-08-25T06:25:13.439Z,25.40
2018-08-25T06:26:13.465Z,25.49
2018-08-25T06:27:13.495Z,25.41
2018-08-25T06:28:13.517Z,25.44
2018-08-25T06:29:13.550Z,25.46
2018-08-25T06:30:13.577Z,25.46
2018-08-25T06:31:13.610Z,25.46
2018-08-25T06:32:13.625Z,25.52
2018-08-25T06:33:13.674Z,25.51
2018-08-25T06:34:13.712Z,25.46
2018-08-25T06:35:13.703Z,25.52
2018-08-25T06:36:13.733Z,25.48
2018-08-25T06:37:13.757Z,25.51
2018-08-25T06:38:13.782Z,25.52
2018-08-25T06:39:13.820Z,25.59
2018-08-25T06:40:13.834Z,25.56
2018-08-25T06:41:13.860Z,25.48
2018-08-25T06:42:13.897Z,25.52
2018-08-25T06:43:13.949Z,25.49
2018-08-25T06:44:13.942Z,25.55
2018-08-25T06:45:13.966Z,25.54
2018-08-25T06:46:13.993Z,25.54
2018-08-25T06:47:14.039Z,25.66
2018-08-25T06:48:14.045Z,25.52
2018-08-25T06:49:14.071Z,25.59
2018-08-25T06:50:14.098Z,25.52
2018-08-25T06:51:14.126Z,25.62
2018-08-25T06:52:14.157Z,25.67
2018-08-25T06:53:14.221Z,25.59
2018-08-25T06:54:14.204Z,25.52
2018-08-25T06:55:14.245Z,25.63
2018-08-25T06:56:14.257Z,25.59
2018-08-25T06:57:14.283Z,25.62
2018-08-25T06:58:14.309Z,25.54
2018-08-25T06:59:14.336Z,25.63
2018-08-25T07:00:14.362Z,25.62
2018-08-25T07:01:14.389Z,25.59
2018-08-25T07:02:14.416Z,25.67
2018-08-25T07:03:14.442Z,25.62
2018-08-25T07:04:14.468Z,25.66
2018-08-25T07:05:14.495Z,25.68
2018-08-25T07:06:14.530Z,25.61
2018-08-25T07:07:14.580Z,25.67
2018-08-25T07:08:14.573Z,25.62
2018-08-25T07:09:14.601Z,25.61
2018-08-25T07:10:14.627Z,25.62
2018-08-25T07:11:14.678Z,25.63
2018-08-25T07:12:14.682Z,25.66
2018-08-25T07:13:14.707Z,25.63
2018-08-25T07:14:14.732Z,25.73
2018-08-25T07:15:14.760Z,25.62
2018-08-25T07:16:14.785Z,25.68
2018-08-25T07:17:14.812Z,25.63
2018-08-25T07:18:14.841Z,25.62
2018-08-25T07:19:14.868Z,25.71
2018-08-25T07:20:14.891Z,25.68
2018-08-25T07:21:14.917Z,25.74
2018-08-25T07:22:14.944Z,25.76
2018-08-25T07:23:14.978Z,25.70
2018-08-25T07:24:14.997Z,25.74
2018-08-25T07:25:15.024Z,25.73
2018-08-25T07:26:15.190Z,25.71
2018-08-25T07:27:15.087Z,25.73
2018-08-25T07:28:15.102Z,25.74
2018-08-25T07:29:15.133Z,25.66
2018-08-25T07:30:15.156Z,25.71
2018-08-25T07:31:15.203Z,25.68
2018-08-25T07:32:15.304Z,25.71
2018-08-25T07:33:15.235Z,25.73
2018-08-25T07:34:15.262Z,25.66
2018-08-25T07:35:15.290Z,25.76
2018-08-25T07:36:15.316Z,25.73
2018-08-25T07:37:15.342Z,25.74
2018-08-25T07:38:15.378Z,25.71
2018-08-25T07:39:15.395Z,25.73
2018-08-25T07:40:15.433Z,25.74
2018-08-25T07:41:15.448Z,25.76
2018-08-25T07:42:15.474Z,25.70
2018-08-25T07:43:15.500Z,25.74
2018-08-25T07:44:15.526Z,25.74
2018-08-25T07:45:15.612Z,25.74
2018-08-25T07:46:15.580Z,25.76
2018-08-25T07:47:15.607Z,25.77
2018-08-25T07:48:15.632Z,25.68
2018-08-25T07:49:15.692Z,25.74
2018-08-25T07:50:15.685Z,25.71
2018-08-25T07:51:15.750Z,25.74
2018-08-25T07:52:15.738Z,25.68
2018-08-25T07:53:15.764Z,25.70
2018-08-25T07:54:15.792Z,25.74
2018-08-25T07:55:15.818Z,25.78
2018-08-25T07:56:15.870Z,25.61
2018-08-25T07:57:15.871Z,25.74
2018-08-25T07:58:15.897Z,25.70
2018-08-25T07:59:16.018Z,25.73
2018-08-25T08:00:15.950Z,25.74
2018-08-25T08:01:16.013Z,25.77
2018-08-25T08:02:16.003Z,25.74
2018-08-25T08:03:16.030Z,25.71
2018-08-25T08:04:16.091Z,25.70
2018-08-25T08:05:16.082Z,25.70
2018-08-25T08:06:16.109Z,25.71
2018-08-25T08:07:16.137Z,25.67
2018-08-25T08:08:16.165Z,25.73
2018-08-25T08:09:16.189Z,25.67
2018-08-25T08:10:16.215Z,25.74
2018-08-25T08:11:16.242Z,25.77
2018-08-25T08:12:16.318Z,25.74
2018-08-25T08:13:16.295Z,25.70
2018-08-25T08:14:16.322Z,25.77
2018-08-25T08:15:16.352Z,25.73
2018-08-25T08:16:16.373Z,25.66
2018-08-25T08:17:16.406Z,25.71
2018-08-25T08:18:16.427Z,25.68
2018-08-25T08:19:16.454Z,25.70
2018-08-25T08:20:16.480Z,25.74
2018-08-25T08:21:16.507Z,25.73
2018-08-25T08:22:16.533Z,25.74
2018-08-25T08:23:16.560Z,25.74
2018-08-25T08:24:16.586Z,25.74
2018-08-25T08:25:16.613Z,25.67
2018-08-25T08:26:16.639Z,25.71
2018-08-25T08:27:16.666Z,25.67
2018-08-25T08:28:16.692Z,25.62
2018-08-25T08:29:16.718Z,25.66
2018-08-25T08:30:16.745Z,25.77
2018-08-25T08:31:16.773Z,25.73
2018-08-25T08:32:16.800Z,25.73
2018-08-25T08:33:16.831Z,25.74
2018-08-25T08:34:16.853Z,25.77
2018-08-25T08:35:16.878Z,25.78
2018-08-25T08:36:16.906Z,25.76
2018-08-25T08:37:16.949Z,25.70
2018-08-25T08:38:16.957Z,25.74
2018-08-25T08:39:16.987Z,25.77
2018-08-25T08:40:17.013Z,25.74
2018-08-25T08:41:17.037Z,25.76
2018-08-25T08:42:17.136Z,25.74
2018-08-25T08:43:17.091Z,25.76
2018-08-25T08:44:17.118Z,25.74
2018-08-25T08:45:17.195Z,25.70
2018-08-25T08:46:17.170Z,25.76
2018-08-25T08:47:17.248Z,25.77
2018-08-25T08:48:17.227Z,25.77
2018-08-25T08:49:17.248Z,25.80
2018-08-25T08:50:17.289Z,25.76
2018-08-25T08:51:17.303Z,25.73
2018-08-25T08:52:17.333Z,25.74
2018-08-25T08:53:17.355Z,25.74
2018-08-25T08:54:17.389Z,25.80
2018-08-25T08:55:17.409Z,25.77
2018-08-25T08:56:17.434Z,25.81
2018-08-25T08:57:17.462Z,25.86
2018-08-25T08:58:17.507Z,25.70
2018-08-25T08:59:17.514Z,25.76
2018-08-25T09:00:17.542Z,25.73
2018-08-25T09:01:17.599Z,25.74
2018-08-25T09:02:17.619Z,25.74
2018-08-25T09:03:17.668Z,25.74
2018-08-25T09:04:17.646Z,25.70
2018-08-25T09:05:17.673Z,25.70
2018-08-25T09:06:17.703Z,25.78
2018-08-25T09:07:17.727Z,25.78
2018-08-25T09:08:17.752Z,25.77
2018-08-25T09:09:17.781Z,25.80
2018-08-25T09:10:17.806Z,25.80
2018-08-25T09:11:17.881Z,25.78
2018-08-25T09:12:17.859Z,25.76
2018-08-25T09:13:17.886Z,25.76
2018-08-25T09:14:17.916Z,25.74
2018-08-25T09:15:17.939Z,25.78
2018-08-25T09:16:17.966Z,25.78
2018-08-25T09:17:18.025Z,25.80
2018-08-25T09:18:18.019Z,25.78
2018-08-25T09:19:18.108Z,25.81
2018-08-25T09:20:18.072Z,25.74
2018-08-25T09:21:18.098Z,25.76
2018-08-25T09:22:18.125Z,25.77
2018-08-25T09:23:18.153Z,25.83
2018-08-25T09:24:18.181Z,25.78
2018-08-25T09:25:18.204Z,25.80
2018-08-25T09:26:18.231Z,25.76
2018-08-25T09:27:18.264Z,25.81
2018-08-25T09:28:18.284Z,25.77
2018-08-25T09:29:18.310Z,25.83
2018-08-25T09:30:18.341Z,25.77
2018-08-25T09:31:18.368Z,25.76
2018-08-25T09:32:18.413Z,25.76
2018-08-25T09:33:18.416Z,25.81
2018-08-25T09:34:18.444Z,25.76
2018-08-25T09:35:18.472Z,25.81
2018-08-25T09:36:18.570Z,25.76
2018-08-25T09:37:18.575Z,25.81
2018-08-25T09:38:18.550Z,25.76
2018-08-25T09:39:18.588Z,25.74
2018-08-25T09:40:18.603Z,25.74
2018-08-25T09:41:18.629Z,25.73
2018-08-25T09:42:18.656Z,25.80
2018-08-25T09:43:18.684Z,25.78
2018-08-25T09:44:18.709Z,25.77
2018-08-25T09:45:18.736Z,25.81
2018-08-25T09:46:18.765Z,25.78
2018-08-25T09:47:18.789Z,25.77
2018-08-25T09:48:18.815Z,25.78
2018-08-25T09:49:18.844Z,25.80
2018-08-25T09:50:18.869Z,25.81
2018-08-25T09:51:18.897Z,25.78
2018-08-25T09:52:18.960Z,25.78
2018-08-25T09:53:18.978Z,25.78
2018-08-25T09:54:18.975Z,25.77
2018-08-25T09:55:19.002Z,25.78
2018-08-25T09:56:19.063Z,25.78
2018-08-25T09:57:19.062Z,25.73
2018-08-25T09:58:19.085Z,25.80
2018-08-25T09:59:19.109Z,25.76
2018-08-25T10:00:19.133Z,25.78
2018-08-25T10:01:19.160Z,25.78
2018-08-25T10:02:19.188Z,25.81
2018-08-25T10:03:19.226Z,25.83
2018-08-25T10:04:19.242Z,25.83
2018-08-25T10:05:19.351Z,25.77
2018-08-25T10:06:19.294Z,25.80
2018-08-25T10:07:19.331Z,25.85
2018-08-25T10:08:19.387Z,25.78
2018-08-25T10:09:19.373Z,25.83
2018-08-25T10:10:19.400Z,25.77
2018-08-25T10:11:19.427Z,25.78
2018-08-25T10:12:19.453Z,25.74
2018-08-25T10:13:19.480Z,25.78
2018-08-25T10:14:19.511Z,25.80
2018-08-25T10:15:19.533Z,25.78
2018-08-25T10:16:19.646Z,25.81
2018-08-25T10:17:19.586Z,25.76
2018-08-25T10:18:19.613Z,25.74
2018-08-25T10:19:19.639Z,25.81
2018-08-25T10:20:19.665Z,25.80
2018-08-25T10:21:19.692Z,25.80
2018-08-25T10:22:19.719Z,25.80
2018-08-25T10:23:19.799Z,25.80
2018-08-25T10:24:19.773Z,25.81
2018-08-25T10:25:19.798Z,25.77
2018-08-25T10:26:19.827Z,25.81
2018-08-25T10:27:19.852Z,25.74
2018-08-25T10:28:19.880Z,25.85
2018-08-25T10:29:19.905Z,25.81
2018-08-25T10:30:19.932Z,25.77
2018-08-25T10:31:19.958Z,25.83
2018-08-25T10:32:19.991Z,25.83
2018-08-25T10:33:20.012Z,25.83
2018-08-25T10:34:20.038Z,25.76
2018-08-25T10:35:20.070Z,25.77
2018-08-25T10:36:20.091Z,25.86
2018-08-25T10:37:20.118Z,25.81
2018-08-25T10:38:20.146Z,25.80
2018-08-25T10:39:20.171Z,25.77
2018-08-25T10:40:20.196Z,25.80
2018-08-25T10:41:20.224Z,25.76
2018-08-25T10:42:20.251Z,25.81
2018-08-25T10:43:20.278Z,25.81
2018-08-25T10:44:20.302Z,25.76
2018-08-25T10:45:20.330Z,25.86
2018-08-25T10:46:20.357Z,25.78
2018-08-25T10:47:20.404Z,25.88
2018-08-25T10:48:20.419Z,25.76
2018-08-25T10:49:20.436Z,25.81
2018-08-25T10:50:20.463Z,25.81
2018-08-25T10:51:20.491Z,25.85
2018-08-25T10:52:20.515Z,25.74
2018-08-25T10:53:20.543Z,25.78
2018-08-25T10:54:20.570Z,25.83
2018-08-25T10:55:20.601Z,25.76
2018-08-25T10:56:20.622Z,25.81
2018-08-25T10:57:20.652Z,25.81
2018-08-25T10:58:20.675Z,25.86
2018-08-25T10:59:20.702Z,25.78
2018-08-25T11:00:20.784Z,25.80
2018-08-25T11:01:20.756Z,25.78
2018-08-25T11:02:20.781Z,25.78
2018-08-25T11:03:20.809Z,25.81
2018-08-25T11:04:20.835Z,25.85
2018-08-25T11:05:20.861Z,25.74
2018-08-25T11:06:20.888Z,25.73
2018-08-25T11:07:20.915Z,25.80
2018-08-25T11:08:20.941Z,25.83
2018-08-25T11:09:20.968Z,25.85
2018-08-25T11:10:20.994Z,25.81
2018-08-25T11:11:21.053Z,25.83
2018-08-25T11:12:21.047Z,25.80
2018-08-25T11:13:21.074Z,25.83
2018-08-25T11:14:21.102Z,25.89
2018-08-25T11:15:21.128Z,25.78
2018-08-25T11:16:21.158Z,25.77
2018-08-25T11:17:21.181Z,25.86
2018-08-25T11:18:21.208Z,25.77
2018-08-25T11:19:21.244Z,25.85
2018-08-25T11:20:21.263Z,25.89
2018-08-25T11:21:21.287Z,25.80
2018-08-25T11:22:21.314Z,25.81
2018-08-25T11:23:21.340Z,25.83
2018-08-25T11:24:21.366Z,25.81
2018-08-25T11:25:21.393Z,25.77
2018-08-25T11:26:21.421Z,25.81
2018-08-25T11:27:21.446Z,25.74
2018-08-25T11:28:21.472Z,25.83
2018-08-25T11:29:21.584Z,25.83
2018-08-25T11:30:21.526Z,25.81
2018-08-25T11:31:21.553Z,25.83
2018-08-25T11:32:21.579Z,25.83
2018-08-25T11:33:21.609Z,25.78
2018-08-25T11:34:21.635Z,25.81
2018-08-25T11:35:21.659Z,25.80
2018-08-25T11:36:21.685Z,25.78
2018-08-25T11:37:21.796Z,25.83
2018-08-25T11:38:21.740Z,25.83
2018-08-25T11:39:21.765Z,25.77
2018-08-25T11:40:21.791Z,25.80
2018-08-25T11:41:21.818Z,25.78
2018-08-25T11:42:21.846Z,25.85
2018-08-25T11:43:21.901Z,25.81
2018-08-25T11:44:21.933Z,25.81
2018-08-25T11:45:21.929Z,25.81
2018-08-25T11:46:21.950Z,25.80
2018-08-25T11:47:21.979Z,25.86
2018-08-25T11:48:22.018Z,25.74
2018-08-25T11:49:22.031Z,25.83
2018-08-25T11:50:22.060Z,25.78
2018-08-25T11:51:22.085Z,25.71
2018-08-25T11:52:22.110Z,25.86
2018-08-25T11:53:22.138Z,25.73
2018-08-25T11:54:22.164Z,25.92
2018-08-25T11:55:22.194Z,25.83
2018-08-25T11:56:22.240Z,25.92
2018-08-25T11:57:22.244Z,25.81
2018-08-25T11:58:22.271Z,25.78
2018-08-25T11:59:22.297Z,25.86
2018-08-25T12:00:22.324Z,25.85
2018-08-25T12:01:22.352Z,25.80
2018-08-25T12:02:22.410Z,25.81
2018-08-25T12:03:22.473Z,25.86
2018-08-25T12:04:22.459Z,25.85
2018-08-25T12:05:22.460Z,25.80
2018-08-25T12:06:22.484Z,25.86
2018-08-25T12:07:22.510Z,25.85
2018-08-25T12:08:22.559Z,25.83
2018-08-25T12:09:22.593Z,25.77
2018-08-25T12:10:22.593Z,25.86
2018-08-25T12:11:22.618Z,25.85
2018-08-25T12:12:22.643Z,25.81
2018-08-25T12:13:22.670Z,25.85
2018-08-25T12:14:22.736Z,25.89
2018-08-25T12:15:22.723Z,25.83
2018-08-25T12:16:22.831Z,25.78
2018-08-25T12:17:22.776Z,25.81
2018-08-25T12:18:22.803Z,25.86
2018-08-25T12:19:22.829Z,25.76
2018-08-25T12:20:22.855Z,25.80
2018-08-25T12:21:22.882Z,25.86
2018-08-25T12:22:22.909Z,25.80
2018-08-25T12:23:22.940Z,25.89
2018-08-25T12:24:22.961Z,25.88
2018-08-25T12:25:22.989Z,25.83
2018-08-25T12:26:23.016Z,25.86
2018-08-25T12:27:23.049Z,25.89
2018-08-25T12:28:23.070Z,25.83
2018-08-25T12:29:23.096Z,25.85
2018-08-25T12:30:23.122Z,25.86
2018-08-25T12:31:23.149Z,25.89
2018-08-25T12:32:23.175Z,25.81
2018-08-25T12:33:23.219Z,25.83
2018-08-25T12:34:23.232Z,25.83
2018-08-25T12:35:23.269Z,25.88
2018-08-25T12:36:23.281Z,25.81
2018-08-25T12:37:23.310Z,25.91
2018-08-25T12:38:23.335Z,25.81
2018-08-25T12:39:23.373Z,25.86
2018-08-25T12:40:23.387Z,25.85
2018-08-25T12:41:23.414Z,25.77
2018-08-25T12:42:23.484Z,25.89
2018-08-25T12:43:23.480Z,25.83
2018-08-25T12:44:23.493Z,25.86
2018-08-25T12:45:23.599Z,25.85
2018-08-25T12:46:23.548Z,25.86
2018-08-25T12:47:23.574Z,25.86
2018-08-25T12:48:23.601Z,25.81
2018-08-25T12:49:23.627Z,25.91
2018-08-25T12:50:23.655Z,25.92
2018-08-25T12:51:23.681Z,25.86
2018-08-25T12:52:23.706Z,25.91